Time;durP1;ratioP1;P1;durP2;ratioP2;P2;SDS_P1;SDS_P2;PMS_P1;PMS_P2;Temp;Humidity;BMP_temperature;BMP_pressure;BME280_temperature;BME280_humidity;BME280_pressure;Samples;Min_cycle;Max_cycle;Signal;HPM_P1;HPM_P2
2023/12/21 00:01:31;;;;;;;0.10;0.10;;;;;;;;;;4936343;28;20060;-80
2023/12/21 00:03:58;;;;;;;0.10;0.10;;;;;;;;;;4952982;28;20052;-81
2023/12/21 00:06:25;;;;;;;0.10;0.10;;;;;;;;;;4938594;28;20524;-82
2023/12/21 00:08:51;;;;;;;0.32;0.32;;;;;;;;;;4953072;28;20051;-80
2023/12/21 00:11:17;;;;;;;0.10;0.10;;;;;;;;;;4936040;28;20035;-79
2023/12/21 00:13:44;;;;;;;0.10;0.10;;;;;;;;;;4935858;28;20052;-81
2023/12/21 00:16:12;;;;;;;0.10;0.10;;;;;;;;;;4952731;28;20056;-81
2023/12/21 00:18:41;;;;;;;0.10;0.10;;;;;;;;;;4935694;28;20067;-80
2023/12/21 00:21:08;;;;;;;0.10;0.10;;;;;;;;;;4953542;28;20040;-81
2023/12/21 00:23:34;;;;;;;0.10;0.10;;;;;;;;;;4953736;28;20139;-81
2023/12/21 00:26:01;;;;;;;0.10;0.10;;;;;;;;;;4936528;28;20166;-80
2023/12/21 00:28:27;;;;;;;0.10;0.10;;;;;;;;;;4953105;28;20060;-83
2023/12/21 00:30:53;;;;;;;0.10;0.10;;;;;;;;;;4955171;28;20126;-81
2023/12/21 00:33:20;;;;;;;0.10;0.10;;;;;;;;;;4951873;28;20151;-80
2023/12/21 00:35:47;;;;;;;0.10;0.10;;;;;;;;;;4934844;28;20070;-81
2023/12/21 00:38:13;;;;;;;0.10;0.10;;;;;;;;;;4952976;28;20618;-80
2023/12/21 00:40:39;;;;;;;0.10;0.10;;;;;;;;;;4956356;28;20142;-82
2023/12/21 00:43:06;;;;;;;0.10;0.10;;;;;;;;;;4938723;28;20087;-80
2023/12/21 00:45:32;;;;;;;0.10;0.10;;;;;;;;;;4955946;28;20059;-83
2023/12/21 00:47:59;;;;;;;0.10;0.10;;;;;;;;;;4930636;28;20060;-81
2023/12/21 00:50:26;;;;;;;0.13;0.13;;;;;;;;;;4949348;28;20072;-80
2023/12/21 00:52:52;;;;;;;0.10;0.10;;;;;;;;;;4933118;28;20060;-81
2023/12/21 00:55:19;;;;;;;0.20;0.20;;;;;;;;;;4953092;28;20869;-80
2023/12/21 00:57:45;;;;;;;0.10;0.10;;;;;;;;;;4954759;28;20131;-80
2023/12/21 01:00:12;;;;;;;0.10;0.10;;;;;;;;;;4954835;28;20904;-80
2023/12/21 01:02:38;;;;;;;0.10;0.10;;;;;;;;;;4961186;28;20059;-80
2023/12/21 01:05:07;;;;;;;0.00;0.00;;;;;;;;;;4956949;28;20048;-82
2023/12/21 01:07:34;;;;;;;0.10;0.10;;;;;;;;;;4934629;28;20051;-80
2023/12/21 01:10:00;;;;;;;0.10;0.10;;;;;;;;;;4935022;28;20521;-80
2023/12/21 01:12:31;;;;;;;0.15;0.15;;;;;;;;;;4934849;28;20062;-81
2023/12/21 01:15:00;;;;;;;0.28;0.28;;;;;;;;;;4950470;28;21057;-80
2023/12/21 01:17:27;;;;;;;0.10;0.10;;;;;;;;;;4936417;28;20074;-82
2023/12/21 01:19:53;;;;;;;0.10;0.10;;;;;;;;;;4952976;28;20050;-80
2023/12/21 01:22:20;;;;;;;0.10;0.10;;;;;;;;;;4953407;28;20827;-80
2023/12/21 01:24:46;;;;;;;0.10;0.10;;;;;;;;;;4934402;28;20056;-81
2023/12/21 01:27:13;;;;;;;0.20;0.20;;;;;;;;;;4928701;28;20059;-81
2023/12/21 01:29:55;;;;;;;0.10;0.10;;;;;;;;;;4954159;28;20059;-81
2023/12/21 01:32:21;;;;;;;2.72;1.00;;;;;;;;;;4937014;28;20119;-80
2023/12/21 01:34:48;;;;;;;0.10;0.10;;;;;;;;;;4935733;28;20055;-80
2023/12/21 01:37:14;;;;;;;0.10;0.10;;;;;;;;;;4949680;28;20067;-82
2023/12/21 01:39:41;;;;;;;0.40;0.40;;;;;;;;;;4949032;28;20098;-82
2023/12/21 01:42:07;;;;;;;0.10;0.10;;;;;;;;;;4937368;28;20060;-82
2023/12/21 01:44:34;;;;;;;0.10;0.10;;;;;;;;;;4951645;28;20138;-80
2023/12/21 01:47:02;;;;;;;0.10;0.10;;;;;;;;;;4965614;28;20053;-82
2023/12/21 01:49:28;;;;;;;0.10;0.10;;;;;;;;;;4953833;28;20066;-80
2023/12/21 01:51:55;;;;;;;0.10;0.10;;;;;;;;;;4954617;28;20059;-79
2023/12/21 01:54:22;;;;;;;0.20;0.20;;;;;;;;;;4933940;28;20060;-82
2023/12/21 01:56:48;;;;;;;0.10;0.10;;;;;;;;;;4951135;28;20039;-81
2023/12/21 01:59:15;;;;;;;0.10;0.10;;;;;;;;;;4935171;28;20878;-81
2023/12/21 02:01:41;;;;;;;0.10;0.10;;;;;;;;;;4940596;28;20059;-81
2023/12/21 02:04:08;;;;;;;0.10;0.10;;;;;;;;;;4939344;28;20534;-80
2023/12/21 02:06:34;;;;;;;0.10;0.10;;;;;;;;;;4952382;28;20539;-82
2023/12/21 02:09:01;;;;;;;0.10;0.10;;;;;;;;;;4953183;28;20055;-81
2023/12/21 02:11:27;;;;;;;0.10;0.10;;;;;;;;;;4955022;28;20088;-79
2023/12/21 02:13:54;;;;;;;0.10;0.10;;;;;;;;;;4954411;28;20051;-80
2023/12/21 02:16:25;;;;;;;1.40;1.00;;;;;;;;;;4934761;28;20055;-79
2023/12/21 02:18:52;;;;;;;0.10;0.10;;;;;;;;;;4937653;28;20074;-79
2023/12/21 02:21:18;;;;;;;0.10;0.10;;;;;;;;;;4967742;28;20055;-80
2023/12/21 02:23:46;;;;;;;0.10;0.10;;;;;;;;;;4939332;28;20044;-79
2023/12/21 02:26:14;;;;;;;0.10;0.10;;;;;;;;;;4941221;28;20122;-79
2023/12/21 02:28:40;;;;;;;0.10;0.10;;;;;;;;;;4954325;28;20146;-80
2023/12/21 02:31:07;;;;;;;0.10;0.10;;;;;;;;;;4944422;28;20147;-79
2023/12/21 02:33:33;;;;;;;0.10;0.10;;;;;;;;;;4955850;28;20051;-80
2023/12/21 02:36:00;;;;;;;0.10;0.10;;;;;;;;;;4953595;28;20062;-79
2023/12/21 02:38:26;;;;;;;0.40;0.40;;;;;;;;;;4953587;28;20873;-80
2023/12/21 02:40:53;;;;;;;0.10;0.10;;;;;;;;;;4954023;28;20056;-79
2023/12/21 02:43:19;;;;;;;0.10;0.10;;;;;;;;;;4942989;28;20048;-78
2023/12/21 02:45:46;;;;;;;0.10;0.10;;;;;;;;;;4935607;28;20059;-78
2023/12/21 02:48:12;;;;;;;0.10;0.10;;;;;;;;;;4956191;28;20494;-79
2023/12/21 02:50:39;;;;;;;0.10;0.10;;;;;;;;;;4959164;28;20040;-80
2023/12/21 02:53:06;;;;;;;0.40;0.40;;;;;;;;;;4956610;28;20063;-80
2023/12/21 02:55:34;;;;;;;0.10;0.10;;;;;;;;;;4963819;28;20090;-80
2023/12/21 02:58:01;;;;;;;0.10;0.10;;;;;;;;;;4957211;28;20236;-81
2023/12/21 03:00:28;;;;;;;0.10;0.10;;;;;;;;;;4935940;28;20821;-81
2023/12/21 03:02:54;;;;;;;0.10;0.10;;;;;;;;;;4958468;28;20056;-80
2023/12/21 03:05:22;;;;;;;0.32;0.32;;;;;;;;;;4937328;28;20055;-79
2023/12/21 03:07:48;;;;;;;0.10;0.10;;;;;;;;;;4952483;28;20518;-80
2023/12/21 03:10:15;;;;;;;0.10;0.10;;;;;;;;;;4959829;28;20054;-80
2023/12/21 03:12:42;;;;;;;0.10;0.10;;;;;;;;;;4949524;28;20704;-80
2023/12/21 03:15:08;;;;;;;0.10;0.10;;;;;;;;;;4942579;28;20055;-81
2023/12/21 03:17:35;;;;;;;0.10;0.10;;;;;;;;;;4957954;28;20194;-80
2023/12/21 03:20:03;;;;;;;0.10;0.10;;;;;;;;;;4940731;28;20106;-81
2023/12/21 03:22:30;;;;;;;0.10;0.10;;;;;;;;;;4951451;28;20139;-79
2023/12/21 03:24:56;;;;;;;0.30;0.30;;;;;;;;;;4936044;28;20040;-79
2023/12/21 03:27:22;;;;;;;0.10;0.10;;;;;;;;;;4953402;28;20107;-79
2023/12/21 03:29:49;;;;;;;0.10;0.10;;;;;;;;;;4958287;28;20130;-82
2023/12/21 03:32:15;;;;;;;0.10;0.10;;;;;;;;;;4934858;28;21029;-81
2023/12/21 03:34:42;;;;;;;0.10;0.10;;;;;;;;;;4936353;28;20048;-80
2023/12/21 03:37:08;;;;;;;0.10;0.10;;;;;;;;;;4936781;28;20056;-81
2023/12/21 03:39:35;;;;;;;0.10;0.10;;;;;;;;;;4956927;28;20063;-80
2023/12/21 03:42:04;;;;;;;0.10;0.10;;;;;;;;;;4941090;28;20272;-81
2023/12/21 03:44:31;;;;;;;0.30;0.30;;;;;;;;;;4930881;28;20471;-80
2023/12/21 03:46:57;;;;;;;0.10;0.10;;;;;;;;;;4935272;28;20056;-81
2023/12/21 03:49:28;;;;;;;0.10;0.10;;;;;;;;;;4952384;28;20055;-80
2023/12/21 03:51:58;;;;;;;0.10;0.10;;;;;;;;;;4937048;28;20046;-82
2023/12/21 03:54:24;;;;;;;0.10;0.10;;;;;;;;;;4938677;28;20186;-80
2023/12/21 03:56:51;;;;;;;0.10;0.10;;;;;;;;;;4933740;28;20056;-83
2023/12/21 03:59:17;;;;;;;0.10;0.10;;;;;;;;;;4935046;28;20114;-82
2023/12/21 04:01:44;;;;;;;0.10;0.10;;;;;;;;;;4940627;28;20058;-81
2023/12/21 04:04:11;;;;;;;0.10;0.10;;;;;;;;;;4955070;28;20063;-81
2023/12/21 04:06:37;;;;;;;0.10;0.10;;;;;;;;;;4934629;28;20054;-83
2023/12/21 04:09:04;;;;;;;0.10;0.10;;;;;;;;;;4950342;28;20083;-81
2023/12/21 04:11:30;;;;;;;0.10;0.10;;;;;;;;;;4952324;28;20055;-81
2023/12/21 04:13:56;;;;;;;0.20;0.20;;;;;;;;;;4947644;28;20063;-81
2023/12/21 04:16:23;;;;;;;0.10;0.10;;;;;;;;;;4951951;28;20048;-82
2023/12/21 04:18:49;;;;;;;0.10;0.10;;;;;;;;;;4954574;28;20068;-81
2023/12/21 04:21:16;;;;;;;0.10;0.10;;;;;;;;;;4939652;28;20067;-82
2023/12/21 04:23:42;;;;;;;0.10;0.10;;;;;;;;;;4956204;28;20079;-82
2023/12/21 04:26:16;;;;;;;0.10;0.10;;;;;;;;;;4934467;28;20066;-80
2023/12/21 04:28:43;;;;;;;0.10;0.10;;;;;;;;;;4951062;28;20548;-81
2023/12/21 04:31:09;;;;;;;1.08;1.00;;;;;;;;;;4954392;28;20046;-80
2023/12/21 04:33:36;;;;;;;0.10;0.10;;;;;;;;;;4955067;28;20074;-81
2023/12/21 04:36:03;;;;;;;0.10;0.10;;;;;;;;;;4950950;28;20064;-82
2023/12/21 04:38:30;;;;;;;0.10;0.10;;;;;;;;;;4934591;28;20495;-80
2023/12/21 04:40:56;;;;;;;0.10;0.10;;;;;;;;;;4942926;28;20854;-80
2023/12/21 04:43:23;;;;;;;0.10;0.10;;;;;;;;;;4954970;28;20059;-81
2023/12/21 04:45:49;;;;;;;0.10;0.10;;;;;;;;;;4935094;28;20896;-82
2023/12/21 04:48:16;;;;;;;0.10;0.10;;;;;;;;;;4952323;28;21009;-82
2023/12/21 04:50:42;;;;;;;0.10;0.10;;;;;;;;;;4955740;28;20621;-80
2023/12/21 04:53:08;;;;;;;0.10;0.10;;;;;;;;;;4949799;28;20059;-83
2023/12/21 04:55:35;;;;;;;0.10;0.10;;;;;;;;;;4942874;28;20056;-81
2023/12/21 04:58:01;;;;;;;0.10;0.10;;;;;;;;;;4952410;28;20062;-80
2023/12/21 05:00:29;;;;;;;0.10;0.10;;;;;;;;;;4935874;28;20056;-81
2023/12/21 05:02:56;;;;;;;0.40;0.30;;;;;;;;;;4956604;28;20048;-80
2023/12/21 05:05:22;;;;;;;0.10;0.10;;;;;;;;;;4953713;28;20107;-81
2023/12/21 05:07:49;;;;;;;0.10;0.10;;;;;;;;;;4943678;28;20063;-82
2023/12/21 05:10:15;;;;;;;0.10;0.10;;;;;;;;;;4942971;28;20107;-80
2023/12/21 05:12:42;;;;;;;0.28;0.28;;;;;;;;;;5040797;23;20046;-78
2023/12/21 05:15:08;;;;;;;0.10;0.10;;;;;;;;;;4964613;28;20063;-78
2023/12/21 05:17:35;;;;;;;0.10;0.10;;;;;;;;;;4982217;28;20086;-78
2023/12/21 05:20:02;;;;;;;0.10;0.10;;;;;;;;;;4975163;28;20063;-76
2023/12/21 05:22:29;;;;;;;0.10;0.10;;;;;;;;;;4972305;28;20047;-76
2023/12/21 05:24:58;;;;;;;0.10;0.10;;;;;;;;;;4973182;28;20556;-78
2023/12/21 05:27:25;;;;;;;0.55;0.43;;;;;;;;;;4972838;28;20526;-78
2023/12/21 05:29:52;;;;;;;0.10;0.10;;;;;;;;;;4971223;28;20055;-78
2023/12/21 05:32:18;;;;;;;0.10;0.10;;;;;;;;;;4971887;28;22778;-78
2023/12/21 05:34:45;;;;;;;0.10;0.10;;;;;;;;;;4969677;28;20106;-79
2023/12/21 05:37:11;;;;;;;0.10;0.10;;;;;;;;;;4977874;28;20086;-79
2023/12/21 05:39:39;;;;;;;0.10;0.10;;;;;;;;;;4971831;28;20514;-77
2023/12/21 05:42:05;;;;;;;0.10;0.10;;;;;;;;;;4973334;28;20841;-78
2023/12/21 05:44:32;;;;;;;0.10;0.10;;;;;;;;;;4974235;28;20058;-79
2023/12/21 05:46:58;;;;;;;0.17;0.17;;;;;;;;;;4970778;28;20048;-78
2023/12/21 05:49:24;;;;;;;0.10;0.10;;;;;;;;;;4972079;28;20063;-78
2023/12/21 05:51:51;;;;;;;0.10;0.10;;;;;;;;;;4963040;28;20107;-77
2023/12/21 05:54:17;;;;;;;0.10;0.10;;;;;;;;;;4969415;28;20051;-78
2023/12/21 05:56:44;;;;;;;0.10;0.10;;;;;;;;;;4963968;28;20059;-78
2023/12/21 05:59:13;;;;;;;0.10;0.10;;;;;;;;;;4973476;28;20051;-78
2023/12/21 06:01:41;;;;;;;0.10;0.10;;;;;;;;;;4972412;28;20047;-77
2023/12/21 06:04:08;;;;;;;0.10;0.10;;;;;;;;;;4966112;28;20114;-78
2023/12/21 06:06:36;;;;;;;0.10;0.10;;;;;;;;;;4970083;28;20480;-78
2023/12/21 06:09:05;;;;;;;0.10;0.10;;;;;;;;;;4971409;28;20054;-76
2023/12/21 06:11:34;;;;;;;0.10;0.10;;;;;;;;;;4967941;28;20056;-77
2023/12/21 06:14:01;;;;;;;0.20;0.20;;;;;;;;;;4970312;28;20051;-77
2023/12/21 06:16:27;;;;;;;5.13;1.67;;;;;;;;;;4968710;28;20059;-78
2023/12/21 06:18:54;;;;;;;0.10;0.10;;;;;;;;;;4964887;28;20062;-77
2023/12/21 06:21:22;;;;;;;0.10;0.10;;;;;;;;;;4970573;28;20836;-77
2023/12/21 06:23:48;;;;;;;0.10;0.10;;;;;;;;;;4964945;28;20055;-77
2023/12/21 06:26:14;;;;;;;0.10;0.10;;;;;;;;;;4971099;28;20084;-76
2023/12/21 06:28:41;;;;;;;0.10;0.10;;;;;;;;;;4964160;28;20062;-77
2023/12/21 06:31:09;;;;;;;0.10;0.10;;;;;;;;;;4967103;28;20061;-77
2023/12/21 06:33:35;;;;;;;0.00;0.00;;;;;;;;;;4959416;28;20051;-77
2023/12/21 06:36:02;;;;;;;0.10;0.10;;;;;;;;;;4971859;28;20077;-78
2023/12/21 06:38:28;;;;;;;0.10;0.10;;;;;;;;;;4967998;28;20107;-78
2023/12/21 06:40:55;;;;;;;0.10;0.10;;;;;;;;;;4974772;28;20075;-77
2023/12/21 06:43:23;;;;;;;0.10;0.10;;;;;;;;;;4967183;28;20609;-77
2023/12/21 06:45:49;;;;;;;0.10;0.10;;;;;;;;;;4975967;28;20065;-77
2023/12/21 06:48:16;;;;;;;0.10;0.10;;;;;;;;;;4965197;28;20048;-76
2023/12/21 06:50:42;;;;;;;0.20;0.20;;;;;;;;;;4970926;28;20043;-77
2023/12/21 06:53:15;;;;;;;0.10;0.10;;;;;;;;;;4968615;28;20039;-77
2023/12/21 06:55:44;;;;;;;0.10;0.10;;;;;;;;;;4965673;28;20062;-78
2023/12/21 06:58:11;;;;;;;0.10;0.10;;;;;;;;;;4971248;28;20059;-77
2023/12/21 07:00:37;;;;;;;0.03;0.03;;;;;;;;;;4962501;28;20087;-77
2023/12/21 07:03:04;;;;;;;0.10;0.10;;;;;;;;;;4964793;28;20146;-78
2023/12/21 07:05:30;;;;;;;0.10;0.10;;;;;;;;;;4966674;28;20579;-78
2023/12/21 07:07:57;;;;;;;0.10;0.10;;;;;;;;;;4972072;28;20130;-78
2023/12/21 07:10:23;;;;;;;0.10;0.10;;;;;;;;;;4971966;28;20059;-78
2023/12/21 07:12:50;;;;;;;0.10;0.10;;;;;;;;;;4970984;28;20043;-78
2023/12/21 07:15:16;;;;;;;0.10;0.10;;;;;;;;;;4971398;28;20086;-78
2023/12/21 07:17:43;;;;;;;0.10;0.10;;;;;;;;;;4973513;28;20047;-78
2023/12/21 07:20:09;;;;;;;0.10;0.10;;;;;;;;;;4970067;28;20051;-78
2023/12/21 07:22:36;;;;;;;0.10;0.10;;;;;;;;;;4971450;28;20055;-78
2023/12/21 07:25:02;;;;;;;0.13;0.13;;;;;;;;;;4969122;28;20055;-77
2023/12/21 07:27:29;;;;;;;0.10;0.10;;;;;;;;;;4971149;28;20047;-78
2023/12/21 07:29:55;;;;;;;0.10;0.10;;;;;;;;;;4965678;28;20136;-78
2023/12/21 07:32:22;;;;;;;0.10;0.10;;;;;;;;;;4967401;28;20686;-78
2023/12/21 07:34:48;;;;;;;0.10;0.10;;;;;;;;;;4972651;28;20055;-77
2023/12/21 07:37:16;;;;;;;0.10;0.10;;;;;;;;;;4961485;28;20059;-78
2023/12/21 07:39:43;;;;;;;3.20;1.77;;;;;;;;;;4962646;28;20062;-78
2023/12/21 07:42:10;;;;;;;0.10;0.10;;;;;;;;;;4967095;28;20058;-78
2023/12/21 07:44:37;;;;;;;0.10;0.10;;;;;;;;;;4970492;28;20121;-78
2023/12/21 07:47:03;;;;;;;0.10;0.10;;;;;;;;;;4967743;28;20107;-78
2023/12/21 07:49:30;;;;;;;0.55;0.35;;;;;;;;;;4964294;28;20049;-76
2023/12/21 07:51:56;;;;;;;0.10;0.10;;;;;;;;;;4962096;28;20152;-77
2023/12/21 07:54:23;;;;;;;0.10;0.10;;;;;;;;;;4965906;28;20059;-78
2023/12/21 07:56:49;;;;;;;0.10;0.10;;;;;;;;;;4964199;28;20382;-77
2023/12/21 07:59:17;;;;;;;0.10;0.10;;;;;;;;;;4970561;28;20060;-78
2023/12/21 08:01:44;;;;;;;0.10;0.10;;;;;;;;;;4960531;28;20055;-78
2023/12/21 08:04:10;;;;;;;0.20;0.20;;;;;;;;;;4969735;28;20442;-77
2023/12/21 08:06:37;;;;;;;0.20;0.20;;;;;;;;;;4964456;28;20051;-78
2023/12/21 08:09:03;;;;;;;0.10;0.10;;;;;;;;;;4964126;28;20478;-78
2023/12/21 08:11:30;;;;;;;0.10;0.10;;;;;;;;;;4966769;28;20533;-76
2023/12/21 08:13:56;;;;;;;0.20;0.20;;;;;;;;;;4964068;28;20035;-78
2023/12/21 08:16:22;;;;;;;1.08;0.55;;;;;;;;;;4971315;28;20110;-78
2023/12/21 08:18:49;;;;;;;0.10;0.10;;;;;;;;;;4963013;28;20506;-76
2023/12/21 08:21:15;;;;;;;0.28;0.28;;;;;;;;;;4961360;28;20114;-77
2023/12/21 08:23:42;;;;;;;0.10;0.10;;;;;;;;;;4968457;28;20111;-78
2023/12/21 08:26:09;;;;;;;0.10;0.10;;;;;;;;;;4968934;28;20062;-77
2023/12/21 08:28:36;;;;;;;0.10;0.10;;;;;;;;;;4964832;28;20050;-77
2023/12/21 08:31:03;;;;;;;0.10;0.10;;;;;;;;;;4975773;28;20066;-77
2023/12/21 08:33:30;;;;;;;0.10;0.10;;;;;;;;;;4963495;28;20051;-78
2023/12/21 08:35:57;;;;;;;0.10;0.10;;;;;;;;;;4974832;28;20059;-78
2023/12/21 08:38:23;;;;;;;0.10;0.10;;;;;;;;;;4966828;28;20061;-76
2023/12/21 08:40:50;;;;;;;0.10;0.10;;;;;;;;;;4975617;28;20529;-76
2023/12/21 08:43:16;;;;;;;0.10;0.10;;;;;;;;;;4971550;28;20063;-79
2023/12/21 08:45:43;;;;;;;0.10;0.10;;;;;;;;;;4967869;28;20045;-79
2023/12/21 08:48:09;;;;;;;0.10;0.10;;;;;;;;;;4967238;28;20131;-78
2023/12/21 08:50:36;;;;;;;0.10;0.10;;;;;;;;;;4967287;28;20055;-77
2023/12/21 08:53:02;;;;;;;0.20;0.20;;;;;;;;;;4962199;28;20055;-78
2023/12/21 08:55:29;;;;;;;0.10;0.10;;;;;;;;;;4971441;28;20110;-79
2023/12/21 08:57:57;;;;;;;0.10;0.10;;;;;;;;;;4957562;28;20067;-77
2023/12/21 09:00:24;;;;;;;0.10;0.10;;;;;;;;;;4966529;28;20529;-78
2023/12/21 09:02:51;;;;;;;0.10;0.10;;;;;;;;;;4964610;28;20059;-77
2023/12/21 09:05:23;;;;;;;0.10;0.10;;;;;;;;;;4969114;28;20052;-78
2023/12/21 09:07:50;;;;;;;0.10;0.10;;;;;;;;;;4972732;28;20063;-78
2023/12/21 09:10:16;;;;;;;0.10;0.10;;;;;;;;;;4973581;28;20911;-78
2023/12/21 09:12:43;;;;;;;0.10;0.10;;;;;;;;;;4968957;28;20063;-76
2023/12/21 09:15:10;;;;;;;0.10;0.10;;;;;;;;;;4961975;28;20047;-78
2023/12/21 09:17:36;;;;;;;0.10;0.10;;;;;;;;;;4973878;28;20063;-78
2023/12/21 09:20:03;;;;;;;0.10;0.10;;;;;;;;;;4968917;28;20055;-78
2023/12/21 09:22:30;;;;;;;0.10;0.10;;;;;;;;;;4972867;28;20059;-77
2023/12/21 09:24:56;;;;;;;0.20;0.20;;;;;;;;;;4976277;28;20087;-78
2023/12/21 09:27:23;;;;;;;0.10;0.10;;;;;;;;;;4971774;28;20056;-78
2023/12/21 09:29:50;;;;;;;0.10;0.10;;;;;;;;;;4972790;28;20051;-77
2023/12/21 09:32:16;;;;;;;0.10;0.10;;;;;;;;;;4977443;28;20059;-79
2023/12/21 09:34:45;;;;;;;0.10;0.10;;;;;;;;;;4972079;28;20079;-78
2023/12/21 09:37:11;;;;;;;0.10;0.10;;;;;;;;;;4977804;28;20055;-79
2023/12/21 09:39:37;;;;;;;0.00;0.00;;;;;;;;;;4978858;28;20055;-80
2023/12/21 09:42:05;;;;;;;0.10;0.10;;;;;;;;;;4986810;28;20074;-80
2023/12/21 09:44:32;;;;;;;0.10;0.10;;;;;;;;;;4986112;28;20309;-80
2023/12/21 09:47:04;;;;;;;0.20;0.20;;;;;;;;;;4981807;28;20048;-80
2023/12/21 09:49:35;;;;;;;0.20;0.20;;;;;;;;;;4979928;28;20047;-80
2023/12/21 09:52:03;;;;;;;0.10;0.10;;;;;;;;;;4985533;28;20035;-80
2023/12/21 09:54:31;;;;;;;0.10;0.10;;;;;;;;;;4976014;28;20059;-80
2023/12/21 09:56:58;;;;;;;0.10;0.10;;;;;;;;;;4974500;28;20051;-80
2023/12/21 09:59:30;;;;;;;0.10;0.10;;;;;;;;;;4980743;28;20051;-80
2023/12/21 10:01:56;;;;;;;0.10;0.10;;;;;;;;;;4983041;28;20194;-80
2023/12/21 10:04:23;;;;;;;0.10;0.10;;;;;;;;;;4975591;28;20083;-80
2023/12/21 10:06:49;;;;;;;0.10;0.10;;;;;;;;;;4987041;28;21217;-81
2023/12/21 10:09:17;;;;;;;0.10;0.10;;;;;;;;;;4977458;28;20172;-81
2023/12/21 10:11:44;;;;;;;0.10;0.10;;;;;;;;;;4985320;28;20043;-81
2023/12/21 10:14:16;;;;;;;0.10;0.10;;;;;;;;;;4977852;28;20040;-80
2023/12/21 10:16:43;;;;;;;0.10;0.10;;;;;;;;;;4978746;28;20051;-81
2023/12/21 10:19:10;;;;;;;0.10;0.10;;;;;;;;;;4979937;28;20058;-81
2023/12/21 10:21:38;;;;;;;0.10;0.10;;;;;;;;;;4979960;28;20051;-82
2023/12/21 10:24:05;;;;;;;0.10;0.10;;;;;;;;;;4983147;28;20127;-80
2023/12/21 10:26:32;;;;;;;0.10;0.10;;;;;;;;;;4980398;28;20050;-81
2023/12/21 10:28:58;;;;;;;0.10;0.10;;;;;;;;;;4997145;28;20059;-81
2023/12/21 10:31:26;;;;;;;0.10;0.10;;;;;;;;;;4974037;28;20873;-81
2023/12/21 10:33:52;;;;;;;0.10;0.10;;;;;;;;;;4969408;28;20051;-81
2023/12/21 10:36:18;;;;;;;0.10;0.10;;;;;;;;;;4973844;28;20055;-81
2023/12/21 10:38:45;;;;;;;0.10;0.10;;;;;;;;;;4992059;28;21793;-81
2023/12/21 10:41:16;;;;;;;0.10;0.10;;;;;;;;;;4980440;28;20142;-81
2023/12/21 10:43:42;;;;;;;0.10;0.10;;;;;;;;;;4971726;28;20067;-81
2023/12/21 10:46:09;;;;;;;0.20;0.20;;;;;;;;;;4979766;28;20103;-79
2023/12/21 10:48:38;;;;;;;0.10;0.10;;;;;;;;;;4981895;28;20043;-81
2023/12/21 10:51:04;;;;;;;0.10;0.10;;;;;;;;;;4980531;28;20923;-81
2023/12/21 10:53:32;;;;;;;0.55;0.43;;;;;;;;;;4976796;28;20138;-80
2023/12/21 10:56:00;;;;;;;0.10;0.10;;;;;;;;;;4978808;28;20055;-80
2023/12/21 10:58:28;;;;;;;0.10;0.10;;;;;;;;;;4996771;28;20058;-82
2023/12/21 11:00:55;;;;;;;0.10;0.10;;;;;;;;;;4982546;28;20046;-81
2023/12/21 11:03:22;;;;;;;0.10;0.10;;;;;;;;;;4973852;28;20059;-81
2023/12/21 11:05:48;;;;;;;1.55;1.40;;;;;;;;;;4968892;28;20047;-81
2023/12/21 11:08:15;;;;;;;0.10;0.10;;;;;;;;;;4977335;28;20055;-81
2023/12/21 11:10:43;;;;;;;0.40;0.40;;;;;;;;;;4968698;28;20064;-81
2023/12/21 11:13:10;;;;;;;0.10;0.10;;;;;;;;;;4973644;28;20059;-81
2023/12/21 11:15:36;;;;;;;0.10;0.10;;;;;;;;;;4972968;28;20098;-81
2023/12/21 11:20:37;;;;;;;0.10;0.10;;;;;;;;;;4989765;28;20054;-82
2023/12/21 11:23:13;;;;;;;0.10;0.10;;;;;;;;;;4991161;28;20106;-84
2023/12/21 11:25:40;;;;;;;0.47;0.47;;;;;;;;;;4987637;28;20110;-83
2023/12/21 11:28:08;;;;;;;0.10;0.10;;;;;;;;;;4972684;28;20058;-82
2023/12/21 11:30:35;;;;;;;0.10;0.10;;;;;;;;;;4970365;28;20091;-85
2023/12/21 11:33:05;;;;;;;0.10;0.10;;;;;;;;;;4988843;28;20043;-84
2023/12/21 11:35:34;;;;;;;0.10;0.10;;;;;;;;;;4973421;28;20067;-83
2023/12/21 11:38:05;;;;;;;0.10;0.10;;;;;;;;;;4988287;28;20110;-83
2023/12/21 11:40:32;;;;;;;0.10;0.10;;;;;;;;;;4969647;28;20059;-84
2023/12/21 11:43:00;;;;;;;0.10;0.10;;;;;;;;;;4999802;28;20058;-84
2023/12/21 11:45:31;;;;;;;0.10;0.10;;;;;;;;;;4975371;28;20099;-86
2023/12/21 11:47:59;;;;;;;0.10;0.10;;;;;;;;;;4975908;28;20079;-86
2023/12/21 11:50:34;;;;;;;0.10;0.10;;;;;;;;;;5141388;27;20904;-83
2023/12/21 11:53:05;;;;;;;0.10;0.10;;;;;;;;;;5145222;27;20154;-82
2023/12/21 11:55:44;;;;;;;0.10;0.10;;;;;;;;;;5136411;27;20076;-82
2023/12/21 11:58:22;;;;;;;0.10;0.10;;;;;;;;;;5138350;27;20554;-83
2023/12/21 12:00:50;;;;;;;0.10;0.10;;;;;;;;;;5130602;27;20109;-83
2023/12/21 12:03:17;;;;;;;0.10;0.10;;;;;;;;;;5129762;27;20050;-83
2023/12/21 12:05:44;;;;;;;0.10;0.10;;;;;;;;;;5132024;27;20047;-82
2023/12/21 12:08:11;;;;;;;0.10;0.10;;;;;;;;;;5133213;27;20594;-83
2023/12/21 12:10:37;;;;;;;0.10;0.10;;;;;;;;;;5129516;27;20079;-84
2023/12/21 12:13:04;;;;;;;0.10;0.10;;;;;;;;;;5140581;27;20048;-83
2023/12/21 12:15:31;;;;;;;0.10;0.10;;;;;;;;;;5139944;27;20055;-86
2023/12/21 12:18:00;;;;;;;0.10;0.10;;;;;;;;;;5146535;27;20051;-83
2023/12/21 12:20:28;;;;;;;0.10;0.10;;;;;;;;;;5139533;27;20054;-83
2023/12/21 12:22:55;;;;;;;0.40;0.40;;;;;;;;;;5127308;27;20040;-85
2023/12/21 12:25:21;;;;;;;0.10;0.10;;;;;;;;;;5129520;27;20146;-84
2023/12/21 12:27:49;;;;;;;0.10;0.10;;;;;;;;;;5140485;27;20038;-84
2023/12/21 12:30:17;;;;;;;0.10;0.10;;;;;;;;;;5136722;27;20052;-84
2023/12/21 12:32:44;;;;;;;0.10;0.10;;;;;;;;;;5132665;27;20055;-84
2023/12/21 12:37:56;;;;;;;0.10;0.10;;;;;;;;;;5325276;22;20062;-84
2023/12/21 12:40:23;;;;;;;0.10;0.10;;;;;;;;;;5022065;28;20054;-83
2023/12/21 12:42:50;;;;;;;0.10;0.10;;;;;;;;;;5048754;28;20136;-86
2023/12/21 12:45:18;;;;;;;0.10;0.10;;;;;;;;;;5034094;28;20129;-84
2023/12/21 12:47:48;;;;;;;0.10;0.10;;;;;;;;;;5032224;28;20044;-84
2023/12/21 12:50:20;;;;;;;0.20;0.20;;;;;;;;;;5034488;28;20054;-84
2023/12/21 12:52:46;;;;;;;1.20;0.73;;;;;;;;;;5027263;28;20061;-88
2023/12/21 12:55:14;;;;;;;0.10;0.10;;;;;;;;;;5032753;28;20053;-85
2023/12/21 12:57:48;;;;;;;0.10;0.10;;;;;;;;;;5029205;28;20056;-85
2023/12/21 13:00:16;;;;;;;0.10;0.10;;;;;;;;;;5026535;28;20134;-85
2023/12/21 13:02:43;;;;;;;0.10;0.10;;;;;;;;;;5017567;28;20053;-84
2023/12/21 13:05:10;;;;;;;0.10;0.10;;;;;;;;;;5017784;28;20058;-85
2023/12/21 13:07:39;;;;;;;0.10;0.10;;;;;;;;;;5017406;28;20092;-85
2023/12/21 13:10:05;;;;;;;0.10;0.10;;;;;;;;;;5023374;28;20069;-84
2023/12/21 13:12:35;;;;;;;0.10;0.10;;;;;;;;;;5019626;28;20145;-86
2023/12/21 13:15:03;;;;;;;0.10;0.10;;;;;;;;;;5028695;28;20045;-85
2023/12/21 13:17:30;;;;;;;0.10;0.10;;;;;;;;;;5503738;23;20105;-84
2023/12/21 13:19:57;;;;;;;0.10;0.10;;;;;;;;;;5006665;28;20104;-83
2023/12/21 13:22:23;;;;;;;1.10;1.08;;;;;;;;;;5001023;28;20051;-82
2023/12/21 13:24:50;;;;;;;0.10;0.10;;;;;;;;;;4980828;28;20083;-85
2023/12/21 13:27:16;;;;;;;0.10;0.10;;;;;;;;;;5015159;28;20623;-84
2023/12/21 13:29:43;;;;;;;0.10;0.10;;;;;;;;;;5004276;28;20142;-85
2023/12/21 13:32:09;;;;;;;0.10;0.10;;;;;;;;;;4995135;28;20051;-83
2023/12/21 13:34:47;;;;;;;0.10;0.10;;;;;;;;;;5043018;28;20034;-85
2023/12/21 13:37:14;;;;;;;0.10;0.10;;;;;;;;;;5029695;28;20088;-83
2023/12/21 13:39:41;;;;;;;0.10;0.10;;;;;;;;;;5039735;28;20133;-84
2023/12/21 13:42:25;;;;;;;0.43;0.43;;;;;;;;;;5010215;28;20058;-87
2023/12/21 13:44:53;;;;;;;0.10;0.10;;;;;;;;;;5038051;28;20059;-83
2023/12/21 13:47:20;;;;;;;0.10;0.10;;;;;;;;;;5002639;28;20085;-83
2023/12/21 13:49:46;;;;;;;0.10;0.10;;;;;;;;;;5032540;28;20091;-84
2023/12/21 13:52:13;;;;;;;0.10;0.10;;;;;;;;;;5033629;28;20102;-83
2023/12/21 13:54:40;;;;;;;0.17;0.17;;;;;;;;;;5005831;28;20072;-83
2023/12/21 13:57:07;;;;;;;0.43;0.43;;;;;;;;;;5030010;28;20958;-83
2023/12/21 13:59:40;;;;;;;0.10;0.10;;;;;;;;;;4999948;28;20058;-85
2023/12/21 14:02:07;;;;;;;0.10;0.10;;;;;;;;;;5034962;28;20051;-84
2023/12/21 14:04:35;;;;;;;0.10;0.10;;;;;;;;;;5001267;28;20062;-85
2023/12/21 14:07:02;;;;;;;0.25;0.25;;;;;;;;;;5037504;28;20055;-82
2023/12/21 14:09:29;;;;;;;0.10;0.10;;;;;;;;;;5012348;28;20094;-85
2023/12/21 14:11:55;;;;;;;0.20;0.20;;;;;;;;;;5000157;28;20070;-84
2023/12/21 14:14:22;;;;;;;0.15;0.15;;;;;;;;;;5040692;28;20031;-84
2023/12/21 14:16:48;;;;;;;0.10;0.10;;;;;;;;;;5001018;28;20237;-83
2023/12/21 14:19:15;;;;;;;0.10;0.10;;;;;;;;;;5005123;28;20086;-82
2023/12/21 14:21:41;;;;;;;0.10;0.10;;;;;;;;;;5006019;28;20070;-83
2023/12/21 14:24:07;;;;;;;0.10;0.10;;;;;;;;;;5005496;28;20133;-85
2023/12/21 14:26:34;;;;;;;0.10;0.10;;;;;;;;;;4999739;28;20051;-84
2023/12/21 14:29:00;;;;;;;0.10;0.10;;;;;;;;;;5001452;28;20062;-82
2023/12/21 14:31:27;;;;;;;0.10;0.10;;;;;;;;;;5025927;28;20058;-83
2023/12/21 14:33:53;;;;;;;0.10;0.10;;;;;;;;;;5028969;28;21027;-82
2023/12/21 14:36:20;;;;;;;0.10;0.10;;;;;;;;;;5029515;28;20146;-84
2023/12/21 14:38:47;;;;;;;2.63;0.55;;;;;;;;;;5000507;28;20062;-82
2023/12/21 14:41:13;;;;;;;0.10;0.10;;;;;;;;;;5008620;28;20658;-83
2023/12/21 14:43:41;;;;;;;0.10;0.10;;;;;;;;;;5004355;28;20047;-83
2023/12/21 14:46:07;;;;;;;0.10;0.10;;;;;;;;;;5002627;28;20066;-84
2023/12/21 14:48:34;;;;;;;0.10;0.10;;;;;;;;;;5032329;28;20066;-85